New Philadelphia, OH

7:50 PM EST on January 29, 2015 (GMT -0500)
Lockport | Change Station
CLOSE
Current Station
Personal Weather Station
Location: New Philadelphia, OH
Elevation: 856 ft
Nearby Weather Stations

Elev 856 ft 40.46 °N, 81.43 °W | Updated 2 seconds ago

Overcast
Overcast
35.6 °F
Feels Like 30 °F
N
6.9
Wind Variable Wind from West
Gusts 15.0 mph

Today
High -- | Low -- °F
--% Chance of Precip.
Yesterday
High -- | Low -- °F
Precip. -- in
7:38 AM 5:40 PM
Waxing Gibbous, 78% visible
Pressure 29.89 in
Visibility 7.0 miles
Clouds Mostly Cloudy 1600 ft
Overcast 2100 ft
Windchill 30 °F
Dew Point 12 °F
Humidity 37%
Rainfall 0.12 in
Snow Depth Not available.
UV 0 out of 12
Pollen .10 out of 12
Air Quality Not available.
Flu Activity Not available.
SPECI KPHD 300017Z AUTO 29010G20KT 7SM BKN016 OVC021 03/01 A2989 RMK AO2 RAE07 PRESRR P0000 T00280006

More Conditions Fewer Conditions

Pressure 29.89 in
Visibility 7.0 miles
Clouds Mostly Cloudy 1600 ft
Overcast 2100 ft
Windchill 30 °F
Dew Point 12 °F
Humidity 37%
Rainfall 0.12 in
Snow Depth Not available.
UV 0 out of 12
Pollen .10 out of 12
Air Quality Not available.
Flu Activity Not available.
SPECI KPHD 300017Z AUTO 29010G20KT 7SM BKN016 OVC021 03/01 A2989 RMK AO2 RAE07 PRESRR P0000 T00280006

More Conditions Fewer Conditions

10-Day Weather Forecast

Almanac

Astronomy

Jan. 29, 2015 Rise Set
Actual Time
Civil Twilight
Nautical Twilight
Astronomical Twilight
Moon
Length of Visible Light
Length of Day
Tomorrow will be .
, % of the Moon is Illuminated

Today's Extremes

State Highs State Lows

Community

WunderPhotos

Upload Photos

1,791,657 photos uploaded!

WunderBlogs® & News

Nearby

Air Quality

  Air Quality AQ Index Pollutant
Not available.

Snow Depth

Station Depth Elevation

Earthquake Activity

City Distance Mag. Time & Date
Minimum magnitude displayed is 2.5.

Coastal Water Temperatures

Place Temperature

Nearby Weather Stations